createdAt,value
2019-01-09T00:24:38.073Z,18.10
2019-01-09T00:27:40.341Z,18.00
2019-01-09T01:41:20.524Z,17.90
2019-01-09T02:00:29.824Z,17.90
2019-01-09T02:03:42.801Z,17.90
2019-01-09T02:06:42.710Z,17.90
2019-01-09T02:09:53.125Z,17.90
2019-01-09T02:13:02.517Z,17.90
2019-01-09T02:16:07.770Z,17.90
2019-01-09T02:19:04.772Z,17.90
2019-01-09T02:22:10.303Z,17.90
2019-01-09T02:25:24.102Z,17.90
2019-01-09T02:28:20.471Z,18.00
2019-01-09T02:31:46.314Z,18.00
2019-01-09T02:34:38.633Z,18.00
2019-01-09T02:37:31.721Z,18.00
2019-01-09T02:40:26.048Z,18.00
2019-01-09T02:43:18.929Z,18.00
2019-01-09T02:46:11.286Z,18.00
2019-01-09T02:49:04.235Z,18.00
2019-01-09T02:51:56.984Z,18.00
2019-01-09T02:54:49.575Z,18.00
2019-01-09T02:57:41.898Z,18.00
2019-01-09T03:00:34.747Z,18.00
2019-01-09T03:03:27.271Z,18.00
2019-01-09T03:06:23.220Z,18.00
2019-01-09T03:09:15.339Z,18.00
2019-01-09T03:12:07.886Z,18.00
2019-01-09T03:15:00.617Z,18.00
2019-01-09T03:17:53.177Z,18.00
2019-01-09T03:20:45.711Z,18.10
2019-01-09T03:23:38.251Z,18.10
2019-01-09T03:26:31.037Z,18.00
2019-01-09T08:37:14.672Z,18.60
2019-01-09T08:40:07.304Z,18.60
2019-01-09T08:42:59.385Z,18.60
2019-01-09T08:45:51.719Z,18.60
2019-01-09T08:48:45.283Z,18.50
2019-01-09T08:51:37.232Z,18.60
2019-01-09T08:54:29.944Z,18.60
2019-01-09T08:57:22.839Z,18.50
2019-01-09T09:00:15.475Z,18.60
2019-01-09T09:03:07.800Z,18.60
2019-01-09T09:06:00.206Z,18.60
2019-01-09T09:08:52.616Z,18.60
2019-01-09T09:11:46.134Z,18.60
2019-01-09T09:14:38.076Z,18.60
2019-01-09T09:17:31.979Z,18.60
2019-01-09T09:20:26.011Z,18.60
2019-01-09T09:23:18.023Z,18.70
2019-01-09T09:26:10.084Z,18.90
2019-01-09T09:29:01.746Z,18.90
2019-01-09T09:31:53.852Z,18.80
2019-01-09T09:34:46.193Z,18.80
2019-01-09T09:37:51.851Z,18.80
2019-01-09T09:40:44.298Z,18.80
2019-01-09T09:43:36.058Z,18.80
2019-01-09T09:46:28.263Z,18.80
2019-01-09T09:49:25.556Z,18.80
2019-01-09T09:52:26.188Z,18.90
2019-01-09T09:55:25.924Z,18.90
2019-01-09T09:58:18.477Z,18.80
2019-01-09T10:01:10.511Z,18.80
2019-01-09T10:04:03.700Z,18.90
2019-01-09T10:07:07.291Z,18.90
2019-01-09T10:09:59.814Z,18.90
2019-01-09T10:12:52.999Z,19.00
2019-01-09T10:15:46.123Z,19.00
2019-01-09T10:18:56.365Z,18.90
2019-01-09T10:21:49.791Z,18.90
2019-01-09T10:24:44.601Z,18.90
2019-01-09T10:30:43.686Z,18.90
2019-01-09T10:33:43.197Z,18.90
2019-01-09T10:36:51.001Z,18.90
2019-01-09T10:39:58.055Z,18.90
2019-01-09T10:42:48.773Z,18.90
2019-01-09T10:45:40.805Z,18.90
2019-01-09T10:48:32.846Z,18.90
2019-01-09T10:51:24.830Z,18.90
2019-01-09T10:54:18.943Z,18.90
2019-01-09T10:57:14.398Z,18.90
2019-01-09T11:00:07.678Z,18.90
2019-01-09T11:03:00.795Z,18.90
2019-01-09T11:05:54.126Z,18.90
2019-01-09T11:08:47.339Z,19.00
2019-01-09T11:11:58.817Z,19.00
2019-01-09T11:14:53.567Z,19.00
2019-01-09T11:17:46.795Z,19.00
2019-01-09T11:20:38.802Z,19.00
2019-01-09T11:23:32.165Z,19.00
2019-01-09T11:26:24.133Z,19.00
2019-01-09T11:29:15.630Z,19.00
2019-01-09T11:32:09.636Z,19.00
2019-01-09T11:35:01.737Z,19.00
2019-01-09T11:37:53.993Z,19.00
2019-01-09T11:40:46.805Z,19.00
2019-01-09T11:43:39.618Z,19.00
2019-01-09T11:46:32.274Z,19.00
2019-01-09T11:49:23.903Z,19.00
2019-01-09T11:52:15.270Z,19.10
2019-01-09T11:55:07.395Z,19.20
2019-01-09T11:58:00.236Z,19.10
2019-01-09T13:06:33.435Z,18.80
2019-01-09T13:09:25.688Z,18.80
2019-01-09T13:12:17.913Z,18.80
2019-01-09T13:15:10.591Z,18.80
2019-01-09T13:18:05.224Z,18.80
2019-01-09T13:20:55.850Z,18.80
2019-01-09T13:23:47.972Z,18.90
2019-01-09T13:26:40.211Z,18.90
2019-01-09T13:29:33.219Z,18.90
2019-01-09T13:32:26.220Z,18.90
2019-01-09T13:35:18.693Z,18.90
2019-01-09T13:38:10.478Z,18.80
2019-01-09T13:41:02.536Z,18.80
2019-01-09T13:44:13.276Z,18.80
2019-01-09T13:47:06.587Z,18.80
2019-01-09T13:49:58.626Z,18.80
2019-01-09T13:52:50.963Z,18.90
2019-01-09T13:55:43.892Z,18.90
2019-01-09T13:58:37.147Z,18.90
2019-01-09T14:01:28.958Z,18.80
2019-01-09T14:04:22.537Z,18.80
2019-01-09T14:07:15.474Z,18.80
2019-01-09T14:10:11.011Z,18.80
2019-01-09T14:13:03.441Z,18.80
2019-01-09T14:15:55.916Z,18.80
2019-01-09T14:18:55.166Z,18.80
2019-01-09T14:21:42.312Z,18.80
2019-01-09T14:24:36.142Z,18.80
2019-01-09T14:27:30.043Z,18.80
2019-01-09T14:30:27.999Z,18.70
2019-01-09T14:33:26.946Z,18.70
2019-01-09T14:36:19.919Z,18.70
2019-01-09T14:39:13.782Z,18.70
2019-01-09T14:42:06.578Z,18.70
2019-01-09T14:45:01.054Z,18.70
2019-01-09T14:47:52.679Z,18.70
2019-01-09T14:50:44.693Z,18.70
2019-01-09T14:53:36.825Z,18.70
2019-01-09T14:56:31.499Z,18.70
2019-01-09T14:59:24.601Z,18.70
2019-01-09T15:02:16.978Z,18.60
2019-01-09T15:05:10.615Z,18.60
2019-01-09T15:08:05.423Z,18.60
2019-01-09T15:10:58.295Z,18.60
2019-01-09T15:13:50.689Z,18.60
2019-01-09T15:16:42.581Z,18.60
2019-01-09T15:19:34.538Z,18.60
2019-01-09T15:22:27.268Z,18.60
2019-01-09T15:25:19.101Z,18.60
2019-01-09T15:28:12.136Z,18.60
2019-01-09T15:31:05.068Z,18.60
2019-01-09T15:33:57.302Z,18.60
2019-01-09T15:36:55.205Z,18.60
2019-01-09T15:39:48.326Z,18.60
2019-01-09T15:42:40.205Z,18.60
2019-01-09T15:45:31.800Z,18.60
2019-01-09T15:48:23.498Z,18.60
2019-01-09T15:51:16.540Z,18.60
2019-01-09T15:54:08.945Z,18.60
2019-01-09T15:57:01.018Z,18.60
2019-01-09T15:59:53.361Z,18.60
2019-01-09T16:02:45.997Z,18.50
2019-01-09T16:05:39.581Z,18.60
2019-01-09T16:08:34.286Z,18.60
2019-01-09T16:11:28.846Z,18.60
2019-01-09T16:14:20.675Z,18.50
2019-01-09T16:17:13.088Z,18.50
2019-01-09T16:20:05.268Z,18.50
2019-01-09T16:22:57.548Z,18.50
2019-01-09T16:25:49.940Z,18.50
2019-01-09T16:28:42.180Z,18.50
2019-01-09T16:31:35.710Z,18.50
2019-01-09T16:34:28.403Z,18.50
2019-01-09T16:37:20.933Z,18.50
2019-01-09T16:40:22.893Z,18.50
2019-01-09T16:43:07.550Z,18.50
2019-01-09T16:45:59.599Z,18.50
2019-01-09T16:48:56.740Z,18.50
2019-01-09T16:51:48.613Z,18.50
2019-01-09T16:54:40.996Z,18.50
2019-01-09T16:57:34.199Z,18.50
2019-01-09T17:00:28.812Z,18.50
2019-01-09T17:03:20.661Z,18.50
2019-01-09T17:06:13.541Z,18.50
2019-01-09T17:09:07.274Z,18.50
2019-01-09T17:11:59.484Z,18.50
2019-01-09T17:14:52.496Z,18.50
2019-01-09T17:17:45.856Z,18.50
2019-01-09T17:20:39.016Z,18.50
2019-01-09T17:23:31.024Z,18.50
2019-01-09T17:26:24.300Z,18.40
2019-01-09T17:29:18.751Z,18.40
2019-01-09T17:32:10.777Z,18.40
2019-01-09T17:35:19.635Z,18.40
2019-01-09T17:38:39.410Z,18.40
2019-01-09T17:41:29.071Z,18.40
2019-01-09T17:44:23.090Z,18.40
2019-01-09T17:47:17.429Z,18.40
2019-01-09T17:50:14.653Z,18.40
2019-01-09T17:53:11.172Z,18.40
2019-01-09T17:56:03.807Z,18.40
2019-01-09T17:58:57.351Z,18.40
2019-01-09T18:01:51.544Z,18.40
2019-01-09T18:04:46.645Z,18.40
2019-01-09T18:07:41.782Z,18.40
2019-01-09T18:10:34.771Z,18.40
2019-01-09T18:13:30.571Z,18.40
2019-01-09T18:16:22.692Z,18.40
2019-01-09T18:19:16.747Z,18.40
2019-01-09T18:22:09.655Z,18.40
2019-01-09T18:25:04.513Z,18.40
2019-01-09T18:27:57.676Z,18.40
2019-01-09T18:30:52.432Z,18.30
2019-01-09T18:33:51.203Z,18.30
2019-01-09T18:36:56.461Z,18.30
2019-01-09T18:40:00.522Z,18.30
2019-01-09T18:43:06.741Z,18.30
2019-01-09T18:46:20.900Z,18.30
2019-01-09T18:49:33.283Z,18.30
2019-01-09T18:52:32.502Z,18.30
2019-01-09T18:55:24.746Z,18.30
2019-01-09T18:58:17.489Z,18.30
2019-01-09T19:01:09.556Z,18.30
2019-01-09T19:04:03.648Z,18.30
2019-01-09T19:06:56.626Z,18.30
2019-01-09T19:09:49.432Z,18.30
2019-01-09T19:12:42.946Z,18.30
2019-01-09T19:15:34.988Z,18.30
2019-01-09T19:18:29.335Z,18.30
2019-01-09T19:21:21.089Z,18.30
2019-01-09T19:24:13.921Z,18.20
2019-01-09T19:27:08.130Z,18.30
2019-01-09T19:30:03.146Z,18.20
2019-01-09T19:32:57.116Z,18.20
2019-01-09T19:35:49.610Z,18.20
2019-01-09T19:38:44.175Z,18.20
2019-01-09T19:41:36.688Z,18.20
2019-01-09T19:44:30.289Z,18.20
2019-01-09T19:47:23.516Z,18.20
2019-01-09T19:50:18.535Z,18.20
2019-01-09T19:53:12.247Z,18.20
2019-01-09T19:56:41.903Z,18.20
2019-01-09T19:59:42.775Z,18.20
2019-01-09T20:02:53.347Z,18.20
2019-01-09T20:05:45.985Z,18.20
2019-01-09T20:08:38.965Z,18.20
2019-01-09T20:11:31.255Z,18.20
2019-01-09T20:14:23.078Z,18.20
2019-01-09T20:17:15.456Z,18.10
2019-01-09T20:20:08.273Z,18.10
2019-01-09T20:23:00.763Z,18.10
2019-01-09T20:25:52.368Z,18.10
2019-01-09T20:28:44.687Z,18.10
2019-01-09T20:31:38.491Z,18.10
2019-01-09T20:34:31.166Z,18.10
2019-01-09T20:37:23.240Z,18.10
2019-01-09T20:40:17.186Z,18.10
2019-01-09T20:43:09.257Z,18.10
2019-01-09T20:46:01.255Z,18.10
2019-01-09T20:48:53.922Z,18.10
2019-01-09T20:51:48.846Z,18.10
2019-01-09T20:54:41.285Z,18.10
2019-01-09T20:57:33.365Z,18.10
2019-01-09T21:00:27.172Z,18.10
2019-01-09T21:03:19.375Z,18.10
2019-01-09T21:06:12.252Z,18.00
2019-01-09T21:09:05.799Z,18.00
2019-01-09T21:12:00.369Z,18.00
2019-01-09T21:14:53.961Z,18.00
2019-01-09T21:17:49.715Z,18.00
2019-01-09T21:20:44.137Z,18.00
2019-01-09T21:23:37.027Z,18.00
2019-01-09T21:26:29.416Z,18.00
2019-01-09T21:29:22.448Z,18.00
2019-01-09T21:32:15.025Z,18.00
2019-01-09T21:35:07.608Z,18.00
2019-01-09T21:37:59.658Z,18.00
2019-01-09T21:40:51.260Z,18.00
2019-01-09T21:43:44.577Z,18.00
2019-01-09T21:46:45.916Z,18.00
2019-01-09T21:49:32.481Z,18.00
2019-01-09T21:52:24.698Z,18.00
2019-01-09T21:55:19.243Z,18.00
2019-01-09T21:58:11.235Z,18.00
2019-01-09T22:01:03.583Z,18.00
2019-01-09T22:03:59.874Z,17.90
2019-01-09T22:06:51.992Z,17.90
2019-01-09T22:09:44.408Z,17.90
2019-01-09T22:12:37.921Z,17.90
2019-01-09T22:15:29.557Z,17.90
2019-01-09T22:18:22.557Z,17.90
2019-01-09T22:21:15.918Z,17.90
2019-01-09T22:24:08.951Z,17.90
2019-01-09T22:27:03.220Z,17.90
2019-01-09T22:29:55.451Z,17.90
2019-01-09T22:32:47.347Z,17.90
2019-01-09T22:35:41.752Z,17.90
2019-01-09T22:38:35.299Z,17.90
2019-01-09T22:41:30.841Z,17.90
2019-01-09T22:44:22.392Z,17.90
2019-01-09T22:47:14.487Z,17.90
2019-01-09T22:50:06.221Z,17.90
2019-01-09T22:52:57.905Z,17.90
2019-01-09T22:55:49.363Z,17.90
2019-01-09T22:58:41.465Z,17.90
2019-01-09T23:01:34.234Z,17.90
2019-01-09T23:04:26.392Z,17.80
2019-01-09T23:07:20.234Z,17.80
2019-01-09T23:10:13.195Z,17.80
2019-01-09T23:13:06.331Z,17.80
2019-01-09T23:16:05.188Z,17.80
2019-01-09T23:18:58.050Z,17.80
2019-01-09T23:21:50.178Z,17.80
2019-01-09T23:24:43.321Z,17.80
2019-01-09T23:27:41.653Z,17.80
2019-01-09T23:30:36.085Z,17.80
2019-01-09T23:33:28.291Z,17.80
2019-01-09T23:36:22.091Z,17.80
2019-01-09T23:39:16.418Z,17.80
2019-01-09T23:42:09.313Z,17.80
2019-01-09T23:45:03.652Z,17.80
2019-01-09T23:47:58.382Z,17.80
2019-01-09T23:50:58.614Z,17.80
2019-01-09T23:53:53.132Z,17.80
2019-01-09T23:56:47.397Z,17.80
2019-01-09T23:59:40.289Z,17.80
